Time;durP1;ratioP1;P1;durP2;ratioP2;P2;SDS_P1;SDS_P2;PMS_P1;PMS_P2;Temp;Humidity;BMP_temperature;BMP_pressure;BME280_temperature;BME280_humidity;BME280_pressure;Samples;Min_cycle;Max_cycle;Signal;HPM_P1;HPM_P2
2022/07/27 00:00:05;;;;;;;4.85;4.45;;;;;;;17.02;97.07422;95273.95;;;;
2022/07/27 00:01:06;;;;;;;4.85;4.45;;;;;;;17.02;97.07422;95273.95;;;;
2022/07/27 00:02:07;;;;;;;4.85;4.45;;;;;;;17.02;97.07422;95273.95;;;;
2022/07/27 00:03:08;;;;;;;5.649999;5.15;;;;;;;16.8;97.28516;95268.24;;;;
2022/07/27 00:04:08;;;;;;;5.649999;5.15;;;;;;;16.8;97.28516;95268.24;;;;
2022/07/27 00:05:09;;;;;;;5.649999;5.15;;;;;;;16.8;97.28516;95268.24;;;;
2022/07/27 00:06:09;;;;;;;5.649999;5.15;;;;;;;16.8;97.28516;95268.24;;;;
2022/07/27 00:07:10;;;;;;;5.649999;5.15;;;;;;;16.8;97.28516;95268.24;;;;
2022/07/27 00:08:10;;;;;;;5.649999;5.15;;;;;;;16.8;97.28516;95268.24;;;;
2022/07/27 00:09:11;;;;;;;5.649999;5.15;;;;;;;16.8;97.28516;95268.24;;;;
2022/07/27 00:10:11;;;;;;;5.649999;5.15;;;;;;;16.8;97.28516;95268.24;;;;
2022/07/27 00:11:13;;;;;;;5.649999;5.15;;;;;;;16.8;97.28516;95268.24;;;;
2022/07/27 00:12:13;;;;;;;5.649999;5.15;;;;;;;16.8;97.28516;95268.24;;;;
2022/07/27 00:13:14;;;;;;;5.550001;5.050001;;;;;;;16.58;97.44434;95266.94;;;;
2022/07/27 00:14:15;;;;;;;5.550001;5.050001;;;;;;;16.58;97.44434;95266.94;;;;
2022/07/27 00:15:16;;;;;;;5.550001;5.050001;;;;;;;16.58;97.44434;95266.94;;;;
2022/07/27 00:16:17;;;;;;;5.550001;5.050001;;;;;;;16.58;97.44434;95266.94;;;;
2022/07/27 00:17:22;;;;;;;5.550001;5.050001;;;;;;;16.58;97.44434;95266.94;;;;
2022/07/27 00:18:23;;;;;;;5.550001;5.050001;;;;;;;16.58;97.44434;95266.94;;;;
2022/07/27 00:19:23;;;;;;;5.550001;5.050001;;;;;;;16.58;97.44434;95266.94;;;;
2022/07/27 00:20:24;;;;;;;5.550001;5.050001;;;;;;;16.58;97.44434;95266.94;;;;
2022/07/27 00:21:25;;;;;;;5.550001;5.050001;;;;;;;16.58;97.44434;95266.94;;;;
2022/07/27 00:22:26;;;;;;;5.550001;5.050001;;;;;;;16.58;97.44434;95266.94;;;;
2022/07/27 00:23:26;;;;;;;5.550001;5.050001;;;;;;;16.58;97.44434;95266.94;;;;
2022/07/27 00:24:27;;;;;;;5.65;5.15;;;;;;;16.63;98.22363;95258.17;;;;
2022/07/27 00:25:27;;;;;;;5.65;5.15;;;;;;;16.63;98.22363;95258.17;;;;
2022/07/27 00:26:28;;;;;;;5.65;5.15;;;;;;;16.63;98.22363;95258.17;;;;
2022/07/27 00:27:28;;;;;;;5.65;5.15;;;;;;;16.63;98.22363;95258.17;;;;
2022/07/27 00:28:29;;;;;;;5.65;5.15;;;;;;;16.63;98.22363;95258.17;;;;
2022/07/27 00:29:29;;;;;;;5.65;5.15;;;;;;;16.63;98.22363;95258.17;;;;
2022/07/27 00:30:29;;;;;;;5.65;5.15;;;;;;;16.63;98.22363;95258.17;;;;
2022/07/27 00:31:30;;;;;;;5.65;5.15;;;;;;;16.63;98.22363;95258.17;;;;
2022/07/27 00:32:30;;;;;;;5.65;5.15;;;;;;;16.63;98.22363;95258.17;;;;
2022/07/27 00:33:31;;;;;;;5.65;5.15;;;;;;;16.63;98.22363;95258.17;;;;
2022/07/27 00:34:31;;;;;;;5.75;5.25;;;;;;;16.61;98.1543;95251.76;;;;
2022/07/27 00:35:32;;;;;;;5.75;5.25;;;;;;;16.61;98.1543;95251.76;;;;
2022/07/27 00:36:33;;;;;;;5.75;5.25;;;;;;;16.61;98.1543;95251.76;;;;
2022/07/27 00:37:34;;;;;;;5.75;5.25;;;;;;;16.61;98.1543;95251.76;;;;
2022/07/27 00:38:34;;;;;;;5.75;5.25;;;;;;;16.61;98.1543;95251.76;;;;
2022/07/27 00:39:34;;;;;;;5.75;5.25;;;;;;;16.61;98.1543;95251.76;;;;
2022/07/27 00:40:35;;;;;;;5.75;5.25;;;;;;;16.61;98.1543;95251.76;;;;
2022/07/27 00:41:35;;;;;;;5.75;5.25;;;;;;;16.61;98.1543;95251.76;;;;
2022/07/27 00:42:36;;;;;;;5.75;5.25;;;;;;;16.61;98.1543;95251.76;;;;
2022/07/27 00:43:37;;;;;;;5.75;5.25;;;;;;;16.61;98.1543;95251.76;;;;
2022/07/27 00:44:55;;;;;;;5.05;4.45;;;;;;;16.73;98.77539;95240.53;;;;
2022/07/27 00:45:56;;;;;;;5.05;4.45;;;;;;;16.73;98.77539;95240.53;;;;
2022/07/27 00:46:57;;;;;;;5.05;4.45;;;;;;;16.73;98.77539;95240.53;;;;
2022/07/27 00:47:58;;;;;;;5.05;4.45;;;;;;;16.73;98.77539;95240.53;;;;
2022/07/27 00:48:58;;;;;;;5.05;4.45;;;;;;;16.73;98.77539;95240.53;;;;
2022/07/27 00:49:59;;;;;;;5.05;4.45;;;;;;;16.73;98.77539;95240.53;;;;
2022/07/27 00:51:00;;;;;;;5.05;4.45;;;;;;;16.73;98.77539;95240.53;;;;
2022/07/27 00:52:01;;;;;;;5.05;4.45;;;;;;;16.73;98.77539;95240.53;;;;
2022/07/27 00:53:03;;;;;;;5.05;4.45;;;;;;;16.73;98.77539;95240.53;;;;
2022/07/27 00:54:04;;;;;;;5.05;4.45;;;;;;;16.73;98.77539;95240.53;;;;
2022/07/27 00:55:04;;;;;;;5.05;4.45;;;;;;;16.73;98.77539;95240.53;;;;
2022/07/27 00:56:06;;;;;;;5.149999;4.649999;;;;;;;16.83;99.06055;95229.42;;;;
2022/07/27 00:57:07;;;;;;;5.149999;4.649999;;;;;;;16.83;99.06055;95229.42;;;;
2022/07/27 00:58:09;;;;;;;5.149999;4.649999;;;;;;;16.83;99.06055;95229.42;;;;
2022/07/27 00:59:10;;;;;;;5.149999;4.649999;;;;;;;16.83;99.06055;95229.42;;;;
2022/07/27 01:00:12;;;;;;;5.149999;4.649999;;;;;;;16.83;99.06055;95229.42;;;;
2022/07/27 01:01:13;;;;;;;5.149999;4.649999;;;;;;;16.83;99.06055;95229.42;;;;
2022/07/27 01:02:14;;;;;;;5.149999;4.649999;;;;;;;16.83;99.06055;95229.42;;;;
2022/07/27 01:03:15;;;;;;;5.149999;4.649999;;;;;;;16.83;99.06055;95229.42;;;;
2022/07/27 01:04:15;;;;;;;5.149999;4.649999;;;;;;;16.83;99.06055;95229.42;;;;
2022/07/27 01:05:16;;;;;;;5.149999;4.649999;;;;;;;16.83;99.06055;95229.42;;;;
2022/07/27 01:06:17;;;;;;;5.3;4.8;;;;;;;16.95;99.25;95220.33;;;;
2022/07/27 01:07:18;;;;;;;5.3;4.8;;;;;;;16.95;99.25;95220.33;;;;
2022/07/27 01:08:19;;;;;;;5.3;4.8;;;;;;;16.95;99.25;95220.33;;;;
2022/07/27 01:10:24;;;;;;;5.3;4.8;;;;;;;16.95;99.25;95220.33;;;;
2022/07/27 01:11:25;;;;;;;5.3;4.8;;;;;;;16.95;99.25;95220.33;;;;
2022/07/27 01:12:25;;;;;;;5.3;4.8;;;;;;;16.95;99.25;95220.33;;;;
2022/07/27 01:13:28;;;;;;;5.3;4.8;;;;;;;16.95;99.25;95220.33;;;;
2022/07/27 01:14:29;;;;;;;5.3;4.8;;;;;;;16.95;99.25;95220.33;;;;
2022/07/27 01:15:30;;;;;;;5.3;4.8;;;;;;;16.95;99.25;95220.33;;;;
2022/07/27 01:16:30;;;;;;;5.3;4.8;;;;;;;16.95;99.25;95220.33;;;;
2022/07/27 01:17:32;;;;;;;4.8;4.3;;;;;;;17;99.15234;95223.99;;;;
2022/07/27 01:18:33;;;;;;;4.8;4.3;;;;;;;17;99.15234;95223.99;;;;
2022/07/27 01:19:35;;;;;;;4.8;4.3;;;;;;;17;99.15234;95223.99;;;;
2022/07/27 01:20:36;;;;;;;4.8;4.3;;;;;;;17;99.15234;95223.99;;;;
2022/07/27 01:21:38;;;;;;;4.8;4.3;;;;;;;17;99.15234;95223.99;;;;
2022/07/27 01:22:39;;;;;;;4.8;4.3;;;;;;;17;99.15234;95223.99;;;;
2022/07/27 01:23:39;;;;;;;4.8;4.3;;;;;;;17;99.15234;95223.99;;;;
2022/07/27 01:24:40;;;;;;;4.8;4.3;;;;;;;17;99.15234;95223.99;;;;
2022/07/27 01:25:40;;;;;;;4.8;4.3;;;;;;;17;99.15234;95223.99;;;;
2022/07/27 01:26:41;;;;;;;4.8;4.3;;;;;;;17;99.15234;95223.99;;;;
2022/07/27 01:27:42;;;;;;;4.400001;4;;;;;;;17.01;99.02441;95206.37;;;;
2022/07/27 01:28:42;;;;;;;4.400001;4;;;;;;;17.01;99.02441;95206.37;;;;
2022/07/27 01:29:44;;;;;;;4.400001;4;;;;;;;17.01;99.02441;95206.37;;;;
2022/07/27 01:30:45;;;;;;;4.400001;4;;;;;;;17.01;99.02441;95206.37;;;;
2022/07/27 01:31:45;;;;;;;4.400001;4;;;;;;;17.01;99.02441;95206.37;;;;
2022/07/27 01:32:46;;;;;;;4.400001;4;;;;;;;17.01;99.02441;95206.37;;;;
2022/07/27 01:33:46;;;;;;;4.400001;4;;;;;;;17.01;99.02441;95206.37;;;;
2022/07/27 01:34:47;;;;;;;4.400001;4;;;;;;;17.01;99.02441;95206.37;;;;
2022/07/27 01:35:48;;;;;;;4.400001;4;;;;;;;17.01;99.02441;95206.37;;;;
2022/07/27 01:36:48;;;;;;;4.400001;4;;;;;;;17.01;99.02441;95206.37;;;;
2022/07/27 01:37:49;;;;;;;4.400001;4;;;;;;;17.01;99.02441;95206.37;;;;
2022/07/27 01:38:49;;;;;;;4.45;4.05;;;;;;;16.8;98.25195;95192.55;;;;
2022/07/27 01:39:50;;;;;;;4.45;4.05;;;;;;;16.8;98.25195;95192.55;;;;
2022/07/27 01:40:50;;;;;;;4.45;4.05;;;;;;;16.8;98.25195;95192.55;;;;
2022/07/27 01:41:52;;;;;;;4.45;4.05;;;;;;;16.8;98.25195;95192.55;;;;
2022/07/27 01:42:53;;;;;;;4.45;4.05;;;;;;;16.8;98.25195;95192.55;;;;
2022/07/27 01:43:54;;;;;;;4.45;4.05;;;;;;;16.8;98.25195;95192.55;;;;
2022/07/27 01:44:55;;;;;;;4.45;4.05;;;;;;;16.8;98.25195;95192.55;;;;
2022/07/27 01:45:55;;;;;;;4.45;4.05;;;;;;;16.8;98.25195;95192.55;;;;
2022/07/27 01:46:56;;;;;;;4.45;4.05;;;;;;;16.8;98.25195;95192.55;;;;
2022/07/27 01:47:56;;;;;;;4.45;4.05;;;;;;;16.8;98.25195;95192.55;;;;
2022/07/27 01:48:57;;;;;;;4.8;3.95;;;;;;;16.63;98.01758;95181.56;;;;
2022/07/27 01:49:57;;;;;;;4.8;3.95;;;;;;;16.63;98.01758;95181.56;;;;
2022/07/27 01:50:58;;;;;;;4.8;3.95;;;;;;;16.63;98.01758;95181.56;;;;
2022/07/27 01:51:58;;;;;;;4.8;3.95;;;;;;;16.63;98.01758;95181.56;;;;
2022/07/27 01:52:59;;;;;;;4.8;3.95;;;;;;;16.63;98.01758;95181.56;;;;
2022/07/27 01:53:59;;;;;;;4.8;3.95;;;;;;;16.63;98.01758;95181.56;;;;
2022/07/27 01:55:00;;;;;;;4.8;3.95;;;;;;;16.63;98.01758;95181.56;;;;
2022/07/27 01:56:00;;;;;;;4.8;3.95;;;;;;;16.63;98.01758;95181.56;;;;
2022/07/27 01:57:01;;;;;;;4.8;3.95;;;;;;;16.63;98.01758;95181.56;;;;
2022/07/27 01:58:04;;;;;;;4.8;3.95;;;;;;;16.63;98.01758;95181.56;;;;
2022/07/27 01:59:06;;;;;;;4.8;3.95;;;;;;;16.63;98.01758;95181.56;;;;
2022/07/27 02:00:06;;;;;;;5.4;4.2;;;;;;;16.3;97.24219;95166.22;;;;
2022/07/27 02:01:10;;;;;;;5.4;4.2;;;;;;;16.3;97.24219;95166.22;;;;
2022/07/27 02:02:13;;;;;;;5.4;4.2;;;;;;;16.3;97.24219;95166.22;;;;
2022/07/27 02:03:13;;;;;;;5.4;4.2;;;;;;;16.3;97.24219;95166.22;;;;
2022/07/27 02:04:14;;;;;;;5.4;4.2;;;;;;;16.3;97.24219;95166.22;;;;
2022/07/27 02:05:14;;;;;;;5.4;4.2;;;;;;;16.3;97.24219;95166.22;;;;
2022/07/27 02:06:15;;;;;;;5.4;4.2;;;;;;;16.3;97.24219;95166.22;;;;
2022/07/27 02:07:15;;;;;;;5.4;4.2;;;;;;;16.3;97.24219;95166.22;;;;
2022/07/27 02:08:16;;;;;;;5.4;4.2;;;;;;;16.3;97.24219;95166.22;;;;
2022/07/27 02:09:16;;;;;;;5.4;4.2;;;;;;;16.3;97.24219;95166.22;;;;
2022/07/27 02:10:17;;;;;;;5.35;4.4;;;;;;;16.01;97.00488;95171.88;;;;
2022/07/27 02:16:29;;;;;;;5.35;4.4;;;;;;;16.01;97.00488;95171.88;;;;
2022/07/27 02:17:30;;;;;;;5.35;4.4;;;;;;;16.01;97.00488;95171.88;;;;
2022/07/27 02:18:31;;;;;;;5.35;4.4;;;;;;;16.01;97.00488;95171.88;;;;
2022/07/27 02:19:31;;;;;;;5.35;4.4;;;;;;;16.01;97.00488;95171.88;;;;
2022/07/27 02:20:33;;;;;;;5.35;4.4;;;;;;;16.01;97.00488;95171.88;;;;
2022/07/27 02:21:34;;;;;;;5;4.599999;;;;;;;15.71;96.91797;95193.2;;;;
2022/07/27 02:22:34;;;;;;;5;4.599999;;;;;;;15.71;96.91797;95193.2;;;;
2022/07/27 02:23:35;;;;;;;5;4.599999;;;;;;;15.71;96.91797;95193.2;;;;
2022/07/27 02:24:38;;;;;;;5;4.599999;;;;;;;15.71;96.91797;95193.2;;;;
2022/07/27 02:25:39;;;;;;;5;4.599999;;;;;;;15.71;96.91797;95193.2;;;;
2022/07/27 02:26:40;;;;;;;5;4.599999;;;;;;;15.71;96.91797;95193.2;;;;
2022/07/27 02:27:40;;;;;;;5;4.599999;;;;;;;15.71;96.91797;95193.2;;;;
2022/07/27 02:28:42;;;;;;;5;4.599999;;;;;;;15.71;96.91797;95193.2;;;;
2022/07/27 02:29:42;;;;;;;5;4.599999;;;;;;;15.71;96.91797;95193.2;;;;
2022/07/27 02:30:43;;;;;;;5;4.599999;;;;;;;15.71;96.91797;95193.2;;;;
2022/07/27 02:31:43;;;;;;;6;4.95;;;;;;;15.6;97.57617;95207.84;;;;
2022/07/27 02:32:44;;;;;;;6;4.95;;;;;;;15.6;97.57617;95207.84;;;;
2022/07/27 02:33:44;;;;;;;6;4.95;;;;;;;15.6;97.57617;95207.84;;;;
2022/07/27 02:34:44;;;;;;;6;4.95;;;;;;;15.6;97.57617;95207.84;;;;
2022/07/27 02:35:45;;;;;;;6;4.95;;;;;;;15.6;97.57617;95207.84;;;;
2022/07/27 02:36:46;;;;;;;6;4.95;;;;;;;15.6;97.57617;95207.84;;;;
2022/07/27 02:37:47;;;;;;;6;4.95;;;;;;;15.6;97.57617;95207.84;;;;
2022/07/27 02:38:47;;;;;;;6;4.95;;;;;;;15.6;97.57617;95207.84;;;;
2022/07/27 02:39:48;;;;;;;6;4.95;;;;;;;15.6;97.57617;95207.84;;;;
2022/07/27 02:40:48;;;;;;;6;4.95;;;;;;;15.6;97.57617;95207.84;;;;
2022/07/27 02:41:49;;;;;;;6;4.95;;;;;;;15.6;97.57617;95207.84;;;;
2022/07/27 02:42:49;;;;;;;6.3;4.6;;;;;;;15.55;98.14746;95210.96;;;;
2022/07/27 02:43:50;;;;;;;6.3;4.6;;;;;;;15.55;98.14746;95210.96;;;;
2022/07/27 02:44:50;;;;;;;6.3;4.6;;;;;;;15.55;98.14746;95210.96;;;;
2022/07/27 02:45:51;;;;;;;6.3;4.6;;;;;;;15.55;98.14746;95210.96;;;;
2022/07/27 02:46:51;;;;;;;6.3;4.6;;;;;;;15.55;98.14746;95210.96;;;;
2022/07/27 02:47:52;;;;;;;6.3;4.6;;;;;;;15.55;98.14746;95210.96;;;;
2022/07/27 02:48:52;;;;;;;6.3;4.6;;;;;;;15.55;98.14746;95210.96;;;;
2022/07/27 02:49:53;;;;;;;6.3;4.6;;;;;;;15.55;98.14746;95210.96;;;;
2022/07/27 02:50:53;;;;;;;6.3;4.6;;;;;;;15.55;98.14746;95210.96;;;;
2022/07/27 02:51:58;;;;;;;6.3;4.6;;;;;;;15.55;98.14746;95210.96;;;;
2022/07/27 02:52:59;;;;;;;4.699999;4.3;;;;;;;15.56;98.52832;95220.98;;;;
2022/07/27 02:53:59;;;;;;;4.699999;4.3;;;;;;;15.56;98.52832;95220.98;;;;
2022/07/27 02:55:00;;;;;;;4.699999;4.3;;;;;;;15.56;98.52832;95220.98;;;;
2022/07/27 02:56:01;;;;;;;4.699999;4.3;;;;;;;15.56;98.52832;95220.98;;;;
2022/07/27 02:57:03;;;;;;;4.699999;4.3;;;;;;;15.56;98.52832;95220.98;;;;
2022/07/27 02:58:04;;;;;;;4.699999;4.3;;;;;;;15.56;98.52832;95220.98;;;;
2022/07/27 02:59:04;;;;;;;4.699999;4.3;;;;;;;15.56;98.52832;95220.98;;;;
2022/07/27 03:00:05;;;;;;;4.699999;4.3;;;;;;;15.56;98.52832;95220.98;;;;
2022/07/27 03:01:09;;;;;;;4.699999;4.3;;;;;;;15.56;98.52832;95220.98;;;;
2022/07/27 03:02:10;;;;;;;4.699999;4.3;;;;;;;15.56;98.52832;95220.98;;;;
2022/07/27 03:03:11;;;;;;;4.699999;4.3;;;;;;;15.56;98.52832;95220.98;;;;
2022/07/27 03:04:11;;;;;;;5;4.45;;;;;;;15.49;98.33887;95213.26;;;;
2022/07/27 03:05:12;;;;;;;5;4.45;;;;;;;15.49;98.33887;95213.26;;;;
2022/07/27 03:06:13;;;;;;;5;4.45;;;;;;;15.49;98.33887;95213.26;;;;
2022/07/27 03:07:13;;;;;;;5;4.45;;;;;;;15.49;98.33887;95213.26;;;;
2022/07/27 03:08:14;;;;;;;5;4.45;;;;;;;15.49;98.33887;95213.26;;;;
2022/07/27 03:09:14;;;;;;;5;4.45;;;;;;;15.49;98.33887;95213.26;;;;
2022/07/27 03:10:15;;;;;;;5;4.45;;;;;;;15.49;98.33887;95213.26;;;;
2022/07/27 03:11:16;;;;;;;5;4.45;;;;;;;15.49;98.33887;95213.26;;;;
2022/07/27 03:12:16;;;;;;;5;4.45;;;;;;;15.49;98.33887;95213.26;;;;
2022/07/27 03:13:17;;;;;;;5;4.45;;;;;;;15.49;98.33887;95213.26;;;;
2022/07/27 03:14:17;;;;;;;4.6;4.199999;;;;;;;15.56;98.78906;95220.06;;;;
2022/07/27 03:15:18;;;;;;;4.6;4.199999;;;;;;;15.56;98.78906;95220.06;;;;
2022/07/27 03:16:18;;;;;;;4.6;4.199999;;;;;;;15.56;98.78906;95220.06;;;;
2022/07/27 03:17:19;;;;;;;4.6;4.199999;;;;;;;15.56;98.78906;95220.06;;;;
2022/07/27 03:18:19;;;;;;;4.6;4.199999;;;;;;;15.56;98.78906;95220.06;;;;
2022/07/27 03:19:20;;;;;;;4.6;4.199999;;;;;;;15.56;98.78906;95220.06;;;;
2022/07/27 03:20:21;;;;;;;4.6;4.199999;;;;;;;15.56;98.78906;95220.06;;;;
2022/07/27 03:21:21;;;;;;;4.6;4.199999;;;;;;;15.56;98.78906;95220.06;;;;
2022/07/27 03:22:22;;;;;;;4.6;4.199999;;;;;;;15.56;98.78906;95220.06;;;;
2022/07/27 03:23:23;;;;;;;4.6;4.199999;;;;;;;15.56;98.78906;95220.06;;;;
2022/07/27 03:24:23;;;;;;;4.6;4.199999;;;;;;;15.56;98.78906;95220.06;;;;
2022/07/27 03:25:24;;;;;;;4.3;3.9;;;;;;;15.74;99.09961;95214.84;;;;
2022/07/27 03:26:25;;;;;;;4.3;3.9;;;;;;;15.74;99.09961;95214.84;;;;
2022/07/27 03:27:25;;;;;;;4.3;3.9;;;;;;;15.74;99.09961;95214.84;;;;
2022/07/27 03:28:26;;;;;;;4.3;3.9;;;;;;;15.74;99.09961;95214.84;;;;
2022/07/27 03:29:27;;;;;;;4.3;3.9;;;;;;;15.74;99.09961;95214.84;;;;
2022/07/27 03:30:27;;;;;;;4.3;3.9;;;;;;;15.74;99.09961;95214.84;;;;
2022/07/27 03:31:28;;;;;;;4.3;3.9;;;;;;;15.74;99.09961;95214.84;;;;
2022/07/27 03:32:28;;;;;;;4.3;3.9;;;;;;;15.74;99.09961;95214.84;;;;
2022/07/27 03:33:29;;;;;;;4.3;3.9;;;;;;;15.74;99.09961;95214.84;;;;
2022/07/27 03:34:29;;;;;;;4.3;3.9;;;;;;;15.74;99.09961;95214.84;;;;
2022/07/27 03:35:30;;;;;;;4.3;3.9;;;;;;;15.74;99.09961;95214.84;;;;
2022/07/27 03:36:30;;;;;;;5.249999;4;;;;;;;15.97;99.33301;95202.23;;;;
2022/07/27 03:37:31;;;;;;;5.249999;4;;;;;;;15.97;99.33301;95202.23;;;;
2022/07/27 03:38:33;;;;;;;5.249999;4;;;;;;;15.97;99.33301;95202.23;;;;
2022/07/27 03:39:33;;;;;;;5.249999;4;;;;;;;15.97;99.33301;95202.23;;;;
2022/07/27 03:40:34;;;;;;;5.249999;4;;;;;;;15.97;99.33301;95202.23;;;;
2022/07/27 03:41:34;;;;;;;5.249999;4;;;;;;;15.97;99.33301;95202.23;;;;
2022/07/27 03:42:35;;;;;;;5.249999;4;;;;;;;15.97;99.33301;95202.23;;;;
2022/07/27 03:43:36;;;;;;;5.249999;4;;;;;;;15.97;99.33301;95202.23;;;;
2022/07/27 03:44:36;;;;;;;5.249999;4;;;;;;;15.97;99.33301;95202.23;;;;
2022/07/27 03:45:37;;;;;;;5.249999;4;;;;;;;15.97;99.33301;95202.23;;;;
2022/07/27 03:46:37;;;;;;;5.55;3.95;;;;;;;16.03;99;95214.18;;;;
2022/07/27 03:47:38;;;;;;;5.55;3.95;;;;;;;16.03;99;95214.18;;;;
2022/07/27 03:48:38;;;;;;;5.55;3.95;;;;;;;16.03;99;95214.18;;;;
2022/07/27 03:49:39;;;;;;;5.55;3.95;;;;;;;16.03;99;95214.18;;;;
2022/07/27 03:50:39;;;;;;;5.55;3.95;;;;;;;16.03;99;95214.18;;;;
2022/07/27 03:51:40;;;;;;;5.55;3.95;;;;;;;16.03;99;95214.18;;;;
2022/07/27 03:52:40;;;;;;;5.55;3.95;;;;;;;16.03;99;95214.18;;;;
2022/07/27 03:53:41;;;;;;;5.55;3.95;;;;;;;16.03;99;95214.18;;;;
2022/07/27 03:54:41;;;;;;;5.55;3.95;;;;;;;16.03;99;95214.18;;;;
2022/07/27 03:55:42;;;;;;;5.55;3.95;;;;;;;16.03;99;95214.18;;;;
2022/07/27 03:56:42;;;;;;;5.55;3.95;;;;;;;16.03;99;95214.18;;;;
2022/07/27 03:57:43;;;;;;;8.1;4.400001;;;;;;;16.11;99.01855;95207.09;;;;
2022/07/27 03:58:45;;;;;;;8.1;4.400001;;;;;;;16.11;99.01855;95207.09;;;;
2022/07/27 03:59:45;;;;;;;8.1;4.400001;;;;;;;16.11;99.01855;95207.09;;;;
2022/07/27 04:00:46;;;;;;;8.1;4.400001;;;;;;;16.11;99.01855;95207.09;;;;
2022/07/27 04:01:46;;;;;;;8.1;4.400001;;;;;;;16.11;99.01855;95207.09;;;;
2022/07/27 04:02:47;;;;;;;8.1;4.400001;;;;;;;16.11;99.01855;95207.09;;;;
2022/07/27 04:03:48;;;;;;;8.1;4.400001;;;;;;;16.11;99.01855;95207.09;;;;
2022/07/27 04:04:48;;;;;;;8.1;4.400001;;;;;;;16.11;99.01855;95207.09;;;;
2022/07/27 04:05:49;;;;;;;8.1;4.400001;;;;;;;16.11;99.01855;95207.09;;;;
2022/07/27 04:06:49;;;;;;;8.1;4.400001;;;;;;;16.11;99.01855;95207.09;;;;
2022/07/27 04:07:50;;;;;;;4;3.6;;;;;;;16.08;98.66406;95196.51;;;;
2022/07/27 04:08:50;;;;;;;4;3.6;;;;;;;16.08;98.66406;95196.51;;;;
2022/07/27 04:09:51;;;;;;;4;3.6;;;;;;;16.08;98.66406;95196.51;;;;
2022/07/27 04:10:51;;;;;;;4;3.6;;;;;;;16.08;98.66406;95196.51;;;;
2022/07/27 04:11:51;;;;;;;4;3.6;;;;;;;16.08;98.66406;95196.51;;;;
2022/07/27 04:12:52;;;;;;;4;3.6;;;;;;;16.08;98.66406;95196.51;;;;
2022/07/27 04:13:52;;;;;;;4;3.6;;;;;;;16.08;98.66406;95196.51;;;;
2022/07/27 04:14:53;;;;;;;4;3.6;;;;;;;16.08;98.66406;95196.51;;;;
2022/07/27 04:15:56;;;;;;;4;3.6;;;;;;;16.08;98.66406;95196.51;;;;
2022/07/27 04:16:57;;;;;;;4;3.6;;;;;;;16.08;98.66406;95196.51;;;;
2022/07/27 04:17:57;;;;;;;4;3.6;;;;;;;16.08;98.66406;95196.51;;;;
2022/07/27 04:18:58;;;;;;;4.650001;3.55;;;;;;;16.03;98.37207;95188.45;;;;
2022/07/27 04:19:58;;;;;;;4.650001;3.55;;;;;;;16.03;98.37207;95188.45;;;;
2022/07/27 04:21:02;;;;;;;4.650001;3.55;;;;;;;16.03;98.37207;95188.45;;;;
2022/07/27 04:22:02;;;;;;;4.650001;3.55;;;;;;;16.03;98.37207;95188.45;;;;
2022/07/27 04:23:03;;;;;;;4.650001;3.55;;;;;;;16.03;98.37207;95188.45;;;;
2022/07/27 04:24:04;;;;;;;4.650001;3.55;;;;;;;16.03;98.37207;95188.45;;;;
2022/07/27 04:25:05;;;;;;;4.650001;3.55;;;;;;;16.03;98.37207;95188.45;;;;
2022/07/27 04:26:06;;;;;;;4.650001;3.55;;;;;;;16.03;98.37207;95188.45;;;;
2022/07/27 04:27:06;;;;;;;4.650001;3.55;;;;;;;16.03;98.37207;95188.45;;;;
2022/07/27 04:28:07;;;;;;;4.650001;3.55;;;;;;;16.03;98.37207;95188.45;;;;
2022/07/27 04:29:07;;;;;;;5.55;3.750001;;;;;;;16;98.15039;95195.2;;;;
2022/07/27 04:30:08;;;;;;;5.55;3.750001;;;;;;;16;98.15039;95195.2;;;;
2022/07/27 04:31:09;;;;;;;5.55;3.750001;;;;;;;16;98.15039;95195.2;;;;
2022/07/27 04:32:09;;;;;;;5.55;3.750001;;;;;;;16;98.15039;95195.2;;;;
2022/07/27 04:33:10;;;;;;;5.55;3.750001;;;;;;;16;98.15039;95195.2;;;;
2022/07/27 04:34:10;;;;;;;5.55;3.750001;;;;;;;16;98.15039;95195.2;;;;
2022/07/27 04:35:11;;;;;;;5.55;3.750001;;;;;;;16;98.15039;95195.2;;;;
2022/07/27 04:36:12;;;;;;;5.55;3.750001;;;;;;;16;98.15039;95195.2;;;;
2022/07/27 04:37:13;;;;;;;5.55;3.750001;;;;;;;16;98.15039;95195.2;;;;
2022/07/27 04:38:14;;;;;;;5.55;3.750001;;;;;;;16;98.15039;95195.2;;;;
2022/07/27 04:39:15;;;;;;;5.55;3.750001;;;;;;;16;98.15039;95195.2;;;;
2022/07/27 04:40:15;;;;;;;4.9;3.7;;;;;;;16.2;98.48535;95191.85;;;;
2022/07/27 04:41:16;;;;;;;4.9;3.7;;;;;;;16.2;98.48535;95191.85;;;;
2022/07/27 04:42:17;;;;;;;4.9;3.7;;;;;;;16.2;98.48535;95191.85;;;;
2022/07/27 04:43:17;;;;;;;4.9;3.7;;;;;;;16.2;98.48535;95191.85;;;;
2022/07/27 04:44:18;;;;;;;4.9;3.7;;;;;;;16.2;98.48535;95191.85;;;;
2022/07/27 04:45:18;;;;;;;4.9;3.7;;;;;;;16.2;98.48535;95191.85;;;;
2022/07/27 04:46:19;;;;;;;4.9;3.7;;;;;;;16.2;98.48535;95191.85;;;;
2022/07/27 04:47:19;;;;;;;4.9;3.7;;;;;;;16.2;98.48535;95191.85;;;;
2022/07/27 04:48:20;;;;;;;4.9;3.7;;;;;;;16.2;98.48535;95191.85;;;;
2022/07/27 04:49:20;;;;;;;4.9;3.7;;;;;;;16.2;98.48535;95191.85;;;;
2022/07/27 04:50:21;;;;;;;5.6;3.6;;;;;;;16.47;98.49121;95189.12;;;;
2022/07/27 04:51:22;;;;;;;5.6;3.6;;;;;;;16.47;98.49121;95189.12;;;;
2022/07/27 04:52:22;;;;;;;5.6;3.6;;;;;;;16.47;98.49121;95189.12;;;;
2022/07/27 04:53:23;;;;;;;5.6;3.6;;;;;;;16.47;98.49121;95189.12;;;;
2022/07/27 04:54:24;;;;;;;5.6;3.6;;;;;;;16.47;98.49121;95189.12;;;;
2022/07/27 04:55:24;;;;;;;5.6;3.6;;;;;;;16.47;98.49121;95189.12;;;;
2022/07/27 04:56:25;;;;;;;5.6;3.6;;;;;;;16.47;98.49121;95189.12;;;;
2022/07/27 04:57:25;;;;;;;5.6;3.6;;;;;;;16.47;98.49121;95189.12;;;;
2022/07/27 04:58:26;;;;;;;5.6;3.6;;;;;;;16.47;98.49121;95189.12;;;;
2022/07/27 04:59:26;;;;;;;5.6;3.6;;;;;;;16.47;98.49121;95189.12;;;;
2022/07/27 05:00:27;;;;;;;5.6;3.6;;;;;;;16.47;98.49121;95189.12;;;;
2022/07/27 05:01:28;;;;;;;5.6;3.6;;;;;;;16.47;98.49121;95189.12;;;;
2022/07/27 05:02:30;;;;;;;5.6;3.6;;;;;;;16.47;98.49121;95189.12;;;;
2022/07/27 05:03:30;;;;;;;5.6;3.6;;;;;;;16.47;98.49121;95189.12;;;;
2022/07/27 05:04:31;;;;;;;5.6;3.6;;;;;;;16.47;98.49121;95189.12;;;;
2022/07/27 05:05:31;;;;;;;5.6;3.6;;;;;;;16.47;98.49121;95189.12;;;;
2022/07/27 05:06:32;;;;;;;5.6;3.6;;;;;;;16.47;98.49121;95189.12;;;;
2022/07/27 05:07:32;;;;;;;5.6;3.6;;;;;;;16.47;98.49121;95189.12;;;;
2022/07/27 05:08:33;;;;;;;5.6;3.6;;;;;;;16.47;98.49121;95189.12;;;;
2022/07/27 05:09:34;;;;;;;5.6;3.6;;;;;;;16.47;98.49121;95189.12;;;;
2022/07/27 05:10:35;;;;;;;5.6;3.6;;;;;;;16.47;98.49121;95189.12;;;;
2022/07/27 05:11:35;;;;;;;5.6;3.6;;;;;;;16.47;98.49121;95189.12;;;;
2022/07/27 05:12:36;;;;;;;4.650001;3.3;;;;;;;17.05;98.40527;95194.51;;;;
2022/07/27 05:13:39;;;;;;;4.650001;3.3;;;;;;;17.05;98.40527;95194.51;;;;
2022/07/27 05:14:40;;;;;;;4.650001;3.3;;;;;;;17.05;98.40527;95194.51;;;;
2022/07/27 05:15:40;;;;;;;4.650001;3.3;;;;;;;17.05;98.40527;95194.51;;;;
2022/07/27 05:16:41;;;;;;;4.650001;3.3;;;;;;;17.05;98.40527;95194.51;;;;
2022/07/27 05:17:42;;;;;;;4.650001;3.3;;;;;;;17.05;98.40527;95194.51;;;;
2022/07/27 05:18:44;;;;;;;4.650001;3.3;;;;;;;17.05;98.40527;95194.51;;;;
2022/07/27 05:19:44;;;;;;;4.650001;3.3;;;;;;;17.05;98.40527;95194.51;;;;
2022/07/27 05:20:44;;;;;;;4.650001;3.3;;;;;;;17.05;98.40527;95194.51;;;;
2022/07/27 05:21:45;;;;;;;4.650001;3.3;;;;;;;17.05;98.40527;95194.51;;;;
2022/07/27 05:22:45;;;;;;;4.55;3.5;;;;;;;17.12;98.14941;95200.45;;;;
2022/07/27 05:23:46;;;;;;;4.55;3.5;;;;;;;17.12;98.14941;95200.45;;;;
2022/07/27 05:24:47;;;;;;;4.55;3.5;;;;;;;17.12;98.14941;95200.45;;;;
2022/07/27 05:25:47;;;;;;;4.55;3.5;;;;;;;17.12;98.14941;95200.45;;;;
2022/07/27 05:26:48;;;;;;;4.55;3.5;;;;;;;17.12;98.14941;95200.45;;;;
2022/07/27 05:27:48;;;;;;;4.55;3.5;;;;;;;17.12;98.14941;95200.45;;;;
2022/07/27 05:28:49;;;;;;;4.55;3.5;;;;;;;17.12;98.14941;95200.45;;;;
2022/07/27 05:29:50;;;;;;;4.55;3.5;;;;;;;17.12;98.14941;95200.45;;;;
2022/07/27 05:30:50;;;;;;;4.55;3.5;;;;;;;17.12;98.14941;95200.45;;;;
2022/07/27 05:31:51;;;;;;;4.55;3.5;;;;;;;17.12;98.14941;95200.45;;;;
2022/07/27 05:32:51;;;;;;;4.55;3.5;;;;;;;17.12;98.14941;95200.45;;;;
2022/07/27 05:33:52;;;;;;;4.1;3.35;;;;;;;17.38;97.9873;95215.76;;;;
2022/07/27 05:34:52;;;;;;;4.1;3.35;;;;;;;17.38;97.9873;95215.76;;;;
2022/07/27 05:35:53;;;;;;;4.1;3.35;;;;;;;17.38;97.9873;95215.76;;;;
2022/07/27 05:36:54;;;;;;;4.1;3.35;;;;;;;17.38;97.9873;95215.76;;;;
2022/07/27 05:37:55;;;;;;;4.1;3.35;;;;;;;17.38;97.9873;95215.76;;;;
2022/07/27 05:38:56;;;;;;;4.1;3.35;;;;;;;17.38;97.9873;95215.76;;;;
2022/07/27 05:39:56;;;;;;;4.1;3.35;;;;;;;17.38;97.9873;95215.76;;;;
2022/07/27 05:40:57;;;;;;;4.1;3.35;;;;;;;17.38;97.9873;95215.76;;;;
2022/07/27 05:41:57;;;;;;;4.1;3.35;;;;;;;17.38;97.9873;95215.76;;;;
2022/07/27 05:42:58;;;;;;;4.1;3.35;;;;;;;17.38;97.9873;95215.76;;;;
2022/07/27 05:43:58;;;;;;;6.150001;3.2;;;;;;;17.91;98.11621;95232.62;;;;
2022/07/27 05:44:59;;;;;;;6.150001;3.2;;;;;;;17.91;98.11621;95232.62;;;;
2022/07/27 05:45:59;;;;;;;6.150001;3.2;;;;;;;17.91;98.11621;95232.62;;;;
2022/07/27 05:47:00;;;;;;;6.150001;3.2;;;;;;;17.91;98.11621;95232.62;;;;
2022/07/27 05:48:01;;;;;;;6.150001;3.2;;;;;;;17.91;98.11621;95232.62;;;;
2022/07/27 05:49:02;;;;;;;6.150001;3.2;;;;;;;17.91;98.11621;95232.62;;;;
2022/07/27 05:50:03;;;;;;;6.150001;3.2;;;;;;;17.91;98.11621;95232.62;;;;
2022/07/27 05:51:04;;;;;;;6.150001;3.2;;;;;;;17.91;98.11621;95232.62;;;;